Aeroporto :
LOGIN :

Iscrizione | Disclaimer

   EN    FR    IT 

 










Sommario :    VFR   VFR Marginale   IFR   IFR Intensivo   IFR Molto Intensivo
Visibilità : 
Base nubi : 
>= 8 km
>= 3000ft
5 / 8 km
1000 / 3000 ft
1500m / 5 km
500 / 1000 ft
800 / 1500m
200 / 500 ft
< 800m
< 200 ft
Simboli :   Temporali  Nebbia  Neve Forte  Precipitazioni Forti  Vento > 20 kt
SIGMETs :   Varie  Temporali  Ghiacco  Turbolenza  Onda orograficha  Ceneri Vulcaniche






- Altitudine del aeroporto : 83 ft
- Codice IATA : VOL


LGBL - Aghialos Volos

ULTIMO METAR :
  • 061350Z 30010KT 9999 FEW015 16/11 Q1008

METARs OBSOLETI :
  • 061320Z 29011KT 9999 FEW015 16/11 Q1008
  • 061250Z 28011KT 9999 FEW015 SCT060 16/10 Q1008
  • 061220Z 28012KT 9999 FEW015 SCT060 16/11 Q1008
  • 061150Z 29011KT 9999 FEW015 16/11 Q1008
  • 061120Z 28010KT 9999 FEW015 15/11 Q1008
  • 061050Z 28010KT 9999 FEW015 15/11 Q1008
  • 061020Z 28010KT 9999 FEW015 SCT060 14/10 Q1009
  • 060950Z 28014KT 9999 FEW010 SCT030 14/10 Q1009

TAF TAF LGBL
Valido dal 06 a 12 ore il 06 a 21 ore UTC


061100Z 0612/0621 30010KT 9999 FEW020 SCT080



MetMap, La meteo Aeronautica in un colpo d'occhio ! - Copyright ORBIFLY Dicembre 2007 - Disclaimer

ORBIFLY MET'MAP TEAM :

Programmazione e sviluppo : Alexandra Zaïnal
Concezione : Baudouin d'Aumeries
Supporto tecnico e logistico : Manuel Goepfert
Aiuto : Marc-Olivier Méhu
Aiuto per la traduzione : Arnaldo La Scala




FONTI E CREDITI :

   NOAA